Time;durP1;ratioP1;P1;durP2;ratioP2;P2;SDS_P1;SDS_P2;PMS_P1;PMS_P2;Temp;Humidity;BMP_temperature;BMP_pressure;BME280_temperature;BME280_humidity;BME280_pressure;Samples;Min_cycle;Max_cycle;Signal;HPM_P1;HPM_P2
2023/12/31 00:02:11;;;;;;;23.95;10.90;;;1.60;99.90;;;;;;5106653;28;20596;-64
2023/12/31 00:04:37;;;;;;;23.58;10.82;;;1.60;99.90;;;;;;5112352;28;20038;-64
2023/12/31 00:07:03;;;;;;;26.35;11.15;;;1.70;99.90;;;;;;5096856;28;20036;-65
2023/12/31 00:09:28;;;;;;;24.98;11.52;;;1.70;99.90;;;;;;5107776;28;20028;-66
2023/12/31 00:11:54;;;;;;;27.50;11.35;;;1.60;99.90;;;;;;5105042;28;20099;-70
2023/12/31 00:14:19;;;;;;;23.67;10.18;;;1.70;99.90;;;;;;5111765;28;20427;-65
2023/12/31 00:16:45;;;;;;;22.75;9.60;;;1.70;99.90;;;;;;5099624;28;20028;-66
2023/12/31 00:19:11;;;;;;;25.17;9.68;;;1.70;99.90;;;;;;5091728;28;20772;-64
2023/12/31 00:21:41;;;;;;;23.77;9.70;;;1.80;99.90;;;;;;5090094;28;20024;-64
2023/12/31 00:24:07;;;;;;;23.38;9.73;;;1.80;99.90;;;;;;5069234;28;20107;-68
2023/12/31 00:26:33;;;;;;;22.80;10.00;;;1.80;99.90;;;;;;5090049;28;20107;-66
2023/12/31 00:28:58;;;;;;;23.33;10.38;;;1.80;99.90;;;;;;5091434;28;20032;-64
2023/12/31 00:31:24;;;;;;;27.55;11.60;;;1.80;99.90;;;;;;5102190;28;20031;-64
2023/12/31 00:33:54;;;;;;;25.50;11.05;;;1.70;99.90;;;;;;5109378;28;20028;-65
2023/12/31 00:36:20;;;;;;;23.70;10.73;;;1.60;99.90;;;;;;5095084;28;20044;-65
2023/12/31 00:38:45;;;;;;;24.30;10.60;;;1.50;99.90;;;;;;5091135;28;20046;-64
2023/12/31 00:41:11;;;;;;;22.98;10.48;;;1.50;99.90;;;;;;5096330;28;20462;-64
2023/12/31 00:43:36;;;;;;;23.45;10.35;;;1.40;99.90;;;;;;5073011;28;20086;-64
2023/12/31 00:46:02;;;;;;;21.67;9.63;;;1.30;99.90;;;;;;5089744;28;20044;-64
2023/12/31 00:48:28;;;;;;;21.23;8.43;;;1.30;99.90;;;;;;5097412;28;20102;-64
2023/12/31 00:50:53;;;;;;;22.35;9.73;;;1.30;99.90;;;;;;5091950;28;20051;-71
2023/12/31 00:53:19;;;;;;;24.50;9.50;;;1.30;99.90;;;;;;5070505;28;20020;-66
2023/12/31 00:55:44;;;;;;;21.42;8.98;;;1.30;99.90;;;;;;5090008;28;20114;-64
2023/12/31 00:58:10;;;;;;;20.50;8.75;;;1.30;99.90;;;;;;5100424;28;20032;-66
2023/12/31 01:00:36;;;;;;;25.60;11.60;;;1.30;99.90;;;;;;5097625;28;20064;-64
2023/12/31 01:03:02;;;;;;;23.95;10.75;;;1.20;99.90;;;;;;5084448;28;20051;-64
2023/12/31 01:05:27;;;;;;;34.10;12.35;;;1.20;99.90;;;;;;5086272;28;20790;-65
2023/12/31 01:07:53;;;;;;;30.38;12.13;;;1.10;99.90;;;;;;5092623;28;20031;-71
2023/12/31 01:10:18;;;;;;;27.15;11.30;;;1.20;99.90;;;;;;5095005;28;20020;-65
2023/12/31 01:12:44;;;;;;;21.08;10.20;;;1.20;99.90;;;;;;5089841;28;20487;-65
2023/12/31 01:15:10;;;;;;;24.27;10.23;;;1.10;99.90;;;;;;5096075;28;20044;-66
2023/12/31 01:17:35;;;;;;;24.52;10.93;;;1.10;99.90;;;;;;5106853;28;20481;-64
2023/12/31 01:20:01;;;;;;;26.80;11.90;;;1.10;99.90;;;;;;5109654;28;20110;-64
2023/12/31 01:22:27;;;;;;;27.40;11.55;;;1.10;99.90;;;;;;5084540;28;20367;-64
2023/12/31 01:24:52;;;;;;;27.50;11.07;;;1.00;99.90;;;;;;5087747;28;20067;-65
2023/12/31 01:27:18;;;;;;;24.15;9.63;;;1.00;99.90;;;;;;5097211;28;20458;-67
2023/12/31 01:29:43;;;;;;;23.45;10.00;;;1.00;99.90;;;;;;5097526;28;20457;-65
2023/12/31 01:32:09;;;;;;;18.85;9.38;;;1.00;99.90;;;;;;5080499;28;20112;-65
2023/12/31 01:34:35;;;;;;;23.95;10.05;;;1.00;99.90;;;;;;5094226;28;20076;-64
2023/12/31 01:37:00;;;;;;;21.55;9.63;;;0.90;99.90;;;;;;5093469;28;20082;-64
2023/12/31 01:39:26;;;;;;;21.98;10.50;;;1.00;99.90;;;;;;5106595;28;20095;-64
2023/12/31 01:41:52;;;;;;;23.05;9.88;;;1.00;99.90;;;;;;5079917;28;20060;-64
2023/12/31 01:44:18;;;;;;;18.67;8.40;;;1.00;99.90;;;;;;5088506;28;20643;-65
2023/12/31 01:46:43;;;;;;;21.55;9.10;;;1.00;99.90;;;;;;5101003;28;20020;-66
2023/12/31 01:49:10;;;;;;;21.58;9.23;;;1.00;99.90;;;;;;5108151;28;20050;-65
2023/12/31 01:51:36;;;;;;;19.98;9.43;;;1.10;99.90;;;;;;5096594;28;20449;-64
2023/12/31 01:54:04;;;;;;;19.90;9.48;;;1.10;99.90;;;;;;5093081;28;20034;-64
2023/12/31 01:56:33;;;;;;;22.33;8.57;;;1.10;99.90;;;;;;5077569;28;20059;-64
2023/12/31 01:59:00;;;;;;;15.77;6.75;;;1.10;99.90;;;;;;5092245;28;20036;-71
2023/12/31 02:01:27;;;;;;;16.48;7.05;;;1.30;99.90;;;;;;5102775;28;20044;-64
2023/12/31 02:03:53;;;;;;;20.35;9.00;;;1.50;99.90;;;;;;5110117;28;20042;-64
2023/12/31 02:06:18;;;;;;;17.15;8.50;;;1.40;99.90;;;;;;5093514;28;20604;-65
2023/12/31 02:08:44;;;;;;;22.88;7.80;;;1.10;99.90;;;;;;5098116;28;20027;-64
2023/12/31 02:11:11;;;;;;;18.10;7.65;;;0.90;99.90;;;;;;5096732;28;20032;-65
2023/12/31 02:13:37;;;;;;;21.02;8.80;;;1.00;99.90;;;;;;5095428;28;20029;-65
2023/12/31 02:16:03;;;;;;;18.08;8.73;;;1.10;99.90;;;;;;5085817;28;20094;-64
2023/12/31 02:18:31;;;;;;;17.13;8.13;;;1.10;99.90;;;;;;5096338;28;20069;-65
2023/12/31 02:20:57;;;;;;;16.63;7.60;;;1.00;99.90;;;;;;5095485;28;20028;-71
2023/12/31 02:23:22;;;;;;;18.38;8.77;;;1.00;99.90;;;;;;5099896;28;20024;-64
2023/12/31 02:26:04;;;;;;;17.10;8.13;;;1.00;99.90;;;;;;5089067;28;20387;-67
2023/12/31 02:28:30;;;;;;;19.30;8.93;;;1.00;99.90;;;;;;5094262;28;20121;-63
2023/12/31 02:30:56;;;;;;;20.60;8.63;;;0.90;99.90;;;;;;5108221;28;20110;-64
2023/12/31 02:33:21;;;;;;;21.55;9.43;;;0.90;99.90;;;;;;5089154;28;20701;-63
2023/12/31 02:35:47;;;;;;;20.00;9.13;;;0.90;99.90;;;;;;5098375;28;20040;-66
2023/12/31 02:38:12;;;;;;;22.83;9.38;;;0.90;99.90;;;;;;5087282;28;20028;-64
2023/12/31 02:40:38;;;;;;;20.45;9.15;;;0.90;99.90;;;;;;5107748;28;20047;-66
2023/12/31 02:43:04;;;;;;;25.65;9.23;;;0.90;99.90;;;;;;5091096;28;20032;-64
2023/12/31 02:45:29;;;;;;;20.13;9.88;;;0.80;99.90;;;;;;5099026;28;20036;-64
2023/12/31 02:47:55;;;;;;;22.25;9.52;;;0.80;99.90;;;;;;5068866;28;20447;-65
2023/12/31 02:50:20;;;;;;;20.65;9.23;;;0.80;99.90;;;;;;5103413;28;20038;-63
2023/12/31 02:52:48;;;;;;;26.85;10.63;;;0.80;99.90;;;;;;5089022;28;20535;-63
2023/12/31 02:55:14;;;;;;;25.35;9.95;;;0.80;99.90;;;;;;5085944;28;20198;-63
2023/12/31 02:57:40;;;;;;;20.17;9.68;;;0.80;99.90;;;;;;5089487;28;20203;-64
2023/12/31 03:00:06;;;;;;;25.17;10.68;;;0.80;99.90;;;;;;5088645;28;20126;-64
2023/12/31 03:02:31;;;;;;;23.27;10.23;;;0.80;99.90;;;;;;5089154;28;20024;-63
2023/12/31 03:04:57;;;;;;;21.02;9.80;;;0.80;99.90;;;;;;5082525;28;20035;-66
2023/12/31 03:07:23;;;;;;;19.65;9.50;;;0.80;99.90;;;;;;5087780;28;20126;-63
2023/12/31 03:09:48;;;;;;;22.98;9.18;;;0.80;99.90;;;;;;5087586;28;20089;-65
2023/12/31 03:12:14;;;;;;;21.02;8.85;;;0.80;99.90;;;;;;5076431;28;20385;-63
2023/12/31 03:14:39;;;;;;;22.20;9.30;;;0.80;99.90;;;;;;5107034;28;20040;-65
2023/12/31 03:17:05;;;;;;;20.65;9.27;;;0.70;99.90;;;;;;5093919;28;20055;-67
2023/12/31 03:19:35;;;;;;;23.33;8.90;;;0.70;99.90;;;;;;5069139;28;20024;-65
2023/12/31 03:22:01;;;;;;;21.08;9.63;;;0.70;99.90;;;;;;5105006;28;20072;-70
2023/12/31 03:24:27;;;;;;;20.33;8.85;;;0.60;99.90;;;;;;5107722;28;20039;-63
2023/12/31 03:26:53;;;;;;;21.20;8.48;;;0.60;99.90;;;;;;5101104;28;20071;-63
2023/12/31 03:29:18;;;;;;;22.95;8.80;;;0.60;99.90;;;;;;5096989;28;20032;-63
2023/12/31 03:31:44;;;;;;;20.42;9.50;;;0.50;99.90;;;;;;5101555;28;20039;-63
2023/12/31 03:34:10;;;;;;;20.70;9.13;;;0.50;99.90;;;;;;5106877;28;20028;-64
2023/12/31 03:36:35;;;;;;;21.23;9.10;;;0.50;99.90;;;;;;5078904;28;20131;-64
2023/12/31 03:39:02;;;;;;;19.23;8.60;;;0.60;99.90;;;;;;5075152;28;20465;-66
2023/12/31 03:41:28;;;;;;;17.83;7.90;;;0.70;99.90;;;;;;5064915;28;20027;-64
2023/12/31 03:43:54;;;;;;;23.10;8.77;;;0.80;99.90;;;;;;5068214;28;20029;-63
2023/12/31 03:46:20;;;;;;;20.85;8.88;;;0.80;99.90;;;;;;5091148;28;20070;-63
2023/12/31 03:48:46;;;;;;;21.80;8.95;;;0.70;99.90;;;;;;5082363;28;20054;-63
2023/12/31 03:51:12;;;;;;;19.60;8.30;;;0.80;99.90;;;;;;5097409;28;20082;-64
2023/12/31 03:53:38;;;;;;;17.30;7.88;;;0.70;99.90;;;;;;5106004;28;20046;-67
2023/12/31 03:56:04;;;;;;;20.67;8.85;;;0.70;99.90;;;;;;5077584;28;20119;-70
2023/12/31 03:58:29;;;;;;;23.15;8.73;;;0.80;99.90;;;;;;5104778;28;20046;-64
2023/12/31 04:00:55;;;;;;;23.38;8.23;;;0.80;99.90;;;;;;5103184;28;20485;-65
2023/12/31 04:03:21;;;;;;;18.92;8.13;;;0.80;99.90;;;;;;5107444;28;20042;-63
2023/12/31 04:05:46;;;;;;;18.13;8.13;;;0.80;99.90;;;;;;5101580;28;20027;-63
2023/12/31 04:08:12;;;;;;;17.63;7.00;;;0.90;99.90;;;;;;5079124;28;20051;-63
2023/12/31 04:10:37;;;;;;;16.67;6.35;;;1.00;99.90;;;;;;5069112;28;20028;-65
2023/12/31 04:13:03;;;;;;;14.43;5.22;;;1.20;99.90;;;;;;5108054;28;20391;-69
2023/12/31 04:15:29;;;;;;;12.25;5.30;;;1.60;99.90;;;;;;5096527;28;20059;-64
2023/12/31 04:17:56;;;;;;;13.18;4.80;;;1.90;99.90;;;;;;5111645;28;20118;-63
2023/12/31 04:20:21;;;;;;;11.63;4.65;;;2.20;99.90;;;;;;5100203;28;20020;-65
2023/12/31 04:22:47;;;;;;;15.30;6.10;;;2.60;99.90;;;;;;5112366;28;20039;-64
2023/12/31 04:25:12;;;;;;;14.77;6.57;;;2.70;99.90;;;;;;5108247;28;20040;-65
2023/12/31 04:27:40;;;;;;;16.85;6.90;;;2.70;99.90;;;;;;5108616;28;20034;-67
2023/12/31 04:30:06;;;;;;;13.40;5.60;;;2.40;99.90;;;;;;5073634;28;20520;-71
2023/12/31 04:32:32;;;;;;;13.93;5.65;;;2.10;99.90;;;;;;5109246;28;20039;-67
2023/12/31 04:34:58;;;;;;;10.13;4.75;;;1.80;99.90;;;;;;5106034;28;20048;-68
2023/12/31 04:37:23;;;;;;;10.45;4.22;;;2.00;99.90;;;;;;5101200;28;20377;-65
2023/12/31 04:39:49;;;;;;;13.88;5.95;;;2.30;99.90;;;;;;5098188;28;20678;-66
2023/12/31 04:42:15;;;;;;;11.68;4.70;;;2.20;99.90;;;;;;5106139;28;20443;-66
2023/12/31 04:44:41;;;;;;;8.93;4.20;;;2.20;99.90;;;;;;5082375;28;20039;-65
2023/12/31 04:47:07;;;;;;;8.05;3.92;;;2.50;99.90;;;;;;5093624;28;20023;-71
2023/12/31 04:49:32;;;;;;;16.50;7.18;;;2.70;99.90;;;;;;5087803;28;20031;-65
2023/12/31 04:51:58;;;;;;;11.38;5.10;;;2.80;99.90;;;;;;5091596;28;20035;-68
2023/12/31 04:54:23;;;;;;;11.02;5.20;;;2.70;99.90;;;;;;5089594;28;20028;-65
2023/12/31 04:56:49;;;;;;;11.35;5.60;;;2.70;99.90;;;;;;5102497;28;20070;-65
2023/12/31 04:59:15;;;;;;;7.95;3.78;;;2.60;99.90;;;;;;5077149;28;20547;-66
2023/12/31 05:01:40;;;;;;;11.85;5.60;;;2.70;99.90;;;;;;5069128;28;20593;-64
2023/12/31 05:04:06;;;;;;;11.77;5.78;;;2.80;99.90;;;;;;5081446;28;20036;-64
2023/12/31 05:06:31;;;;;;;16.88;6.47;;;2.40;99.90;;;;;;5089558;28;20051;-65
2023/12/31 05:08:58;;;;;;;13.63;5.70;;;2.00;99.90;;;;;;5080028;28;20397;-66
2023/12/31 05:11:26;;;;;;;15.02;6.38;;;1.90;99.90;;;;;;5101904;28;20024;-67
2023/12/31 05:13:51;;;;;;;12.75;6.07;;;1.80;99.90;;;;;;5085210;28;20108;-64
2023/12/31 05:16:17;;;;;;;12.35;6.03;;;1.70;99.90;;;;;;5091261;28;20122;-65
2023/12/31 05:18:46;;;;;;;14.20;6.20;;;1.80;99.90;;;;;;5092582;28;20047;-65
2023/12/31 05:21:12;;;;;;;14.50;6.32;;;1.90;99.90;;;;;;5094540;28;20032;-72
2023/12/31 05:23:39;;;;;;;14.13;6.53;;;1.60;99.90;;;;;;5099281;28;20035;-66
2023/12/31 05:26:05;;;;;;;14.57;6.13;;;1.40;99.90;;;;;;5089859;28;20085;-64
2023/12/31 05:28:30;;;;;;;14.23;6.07;;;1.40;99.90;;;;;;5093000;28;20024;-65
2023/12/31 05:30:56;;;;;;;14.65;6.20;;;1.50;99.90;;;;;;5109128;28;20036;-65
2023/12/31 05:33:21;;;;;;;10.55;5.63;;;1.50;99.90;;;;;;5093287;28;20020;-64
2023/12/31 05:35:47;;;;;;;12.68;5.38;;;1.50;99.90;;;;;;5101946;28;20052;-66
2023/12/31 05:38:13;;;;;;;13.23;6.05;;;1.40;99.90;;;;;;5101242;28;20445;-72
2023/12/31 05:40:39;;;;;;;10.30;5.40;;;1.40;99.90;;;;;;5099910;28;20032;-65
2023/12/31 05:43:04;;;;;;;14.98;6.00;;;1.40;99.90;;;;;;5092647;28;20595;-66
2023/12/31 05:45:30;;;;;;;11.77;5.60;;;1.50;99.90;;;;;;5077771;28;20028;-67
2023/12/31 05:47:56;;;;;;;13.38;5.63;;;1.60;99.90;;;;;;5087559;28;20031;-64
2023/12/31 05:50:22;;;;;;;10.27;5.07;;;1.60;99.90;;;;;;5094995;28;20576;-64
2023/12/31 05:52:47;;;;;;;13.18;6.20;;;1.80;99.90;;;;;;5091036;28;20035;-67
2023/12/31 05:55:13;;;;;;;14.05;5.57;;;1.90;99.90;;;;;;5103488;28;20081;-71
2023/12/31 05:57:40;;;;;;;13.63;6.07;;;1.90;99.90;;;;;;5105530;28;20455;-65
2023/12/31 06:00:07;;;;;;;11.73;5.57;;;1.80;99.90;;;;;;5096937;28;20043;-64
2023/12/31 06:02:33;;;;;;;13.75;5.47;;;1.80;99.90;;;;;;5080927;28;20080;-64
2023/12/31 06:04:59;;;;;;;11.60;5.32;;;1.70;99.90;;;;;;5094951;28;20040;-65
2023/12/31 06:07:24;;;;;;;19.75;7.53;;;1.60;99.90;;;;;;5108846;28;20773;-64
2023/12/31 06:09:50;;;;;;;26.23;10.48;;;1.60;99.90;;;;;;5098794;28;20039;-64
2023/12/31 06:12:16;;;;;;;30.05;11.50;;;1.50;99.90;;;;;;5079921;28;20051;-65
2023/12/31 06:14:41;;;;;;;27.15;11.27;;;1.50;99.90;;;;;;5089937;28;20036;-66
2023/12/31 06:17:07;;;;;;;27.38;9.98;;;1.50;99.90;;;;;;5091636;28;20398;-67
2023/12/31 06:19:33;;;;;;;17.02;8.73;;;1.50;99.90;;;;;;5108840;28;20710;-64
2023/12/31 06:21:59;;;;;;;26.50;10.38;;;1.50;99.90;;;;;;5094387;28;20079;-66
2023/12/31 06:24:25;;;;;;;24.45;10.15;;;1.40;99.90;;;;;;5077131;28;20085;-66
2023/12/31 06:26:51;;;;;;;27.60;13.60;;;1.50;99.90;;;;;;5099670;28;20062;-65
2023/12/31 06:29:17;;;;;;;18.85;8.05;;;1.60;99.90;;;;;;5099767;28;20032;-64
2023/12/31 06:31:42;;;;;;;29.33;13.63;;;1.70;99.90;;;;;;5090570;28;20040;-65
2023/12/31 06:34:08;;;;;;;24.50;12.75;;;1.80;99.90;;;;;;5082996;28;20032;-65
2023/12/31 06:36:33;;;;;;;22.75;11.50;;;1.70;99.90;;;;;;5086691;28;20043;-66
2023/12/31 06:38:59;;;;;;;19.85;8.23;;;1.70;99.90;;;;;;5105800;28;20015;-67
2023/12/31 06:41:25;;;;;;;19.98;9.48;;;1.50;99.90;;;;;;5103682;28;20031;-65
2023/12/31 06:43:50;;;;;;;13.77;5.60;;;1.30;99.90;;;;;;5105581;28;20027;-67
2023/12/31 06:46:16;;;;;;;18.95;9.15;;;1.70;99.90;;;;;;5099483;28;20085;-71
2023/12/31 06:48:41;;;;;;;17.08;7.80;;;2.00;99.90;;;;;;5069614;28;20135;-64
2023/12/31 06:51:07;;;;;;;18.98;8.43;;;1.80;99.90;;;;;;5086826;28;20038;-66
2023/12/31 06:53:33;;;;;;;16.17;6.82;;;2.00;99.90;;;;;;5087352;28;20028;-64
2023/12/31 06:56:06;;;;;;;30.75;13.30;;;2.10;99.90;;;;;;5087274;28;20474;-66
2023/12/31 06:58:33;;;;;;;24.70;8.88;;;2.00;99.90;;;;;;5087203;28;20024;-64
2023/12/31 07:00:59;;;;;;;20.25;8.23;;;2.00;99.90;;;;;;5079702;28;20105;-64
2023/12/31 07:03:24;;;;;;;14.05;7.10;;;2.10;99.90;;;;;;5083201;28;20028;-64
2023/12/31 07:05:50;;;;;;;16.27;6.95;;;1.90;99.90;;;;;;5071443;28;20071;-65
2023/12/31 07:08:15;;;;;;;14.95;6.80;;;1.90;99.90;;;;;;5082188;28;20373;-72
2023/12/31 07:10:42;;;;;;;14.10;6.38;;;1.80;99.90;;;;;;5070999;28;20119;-64
2023/12/31 07:13:07;;;;;;;16.83;7.35;;;2.10;99.90;;;;;;5079358;28;20028;-67
2023/12/31 07:15:34;;;;;;;13.57;5.90;;;2.10;99.90;;;;;;5084493;28;20493;-67
2023/12/31 07:18:00;;;;;;;15.80;7.22;;;2.00;99.90;;;;;;5076990;28;20035;-66
2023/12/31 07:20:26;;;;;;;13.25;6.40;;;2.00;99.90;;;;;;5079151;28;20036;-66
2023/12/31 07:22:53;;;;;;;14.88;6.80;;;1.90;99.90;;;;;;5088247;28;20036;-67
2023/12/31 07:25:20;;;;;;;16.02;7.07;;;1.90;99.90;;;;;;5077962;28;20471;-71
2023/12/31 07:27:46;;;;;;;13.07;6.93;;;2.10;99.90;;;;;;5086498;28;20024;-67
2023/12/31 07:30:12;;;;;;;20.65;8.63;;;2.20;99.90;;;;;;5085737;28;21187;-64
2023/12/31 07:32:38;;;;;;;19.13;8.63;;;2.40;99.90;;;;;;5067603;28;20619;-66
2023/12/31 07:35:04;;;;;;;14.07;6.28;;;2.60;99.90;;;;;;5075076;28;20036;-64
2023/12/31 07:37:30;;;;;;;19.77;7.53;;;1.90;99.90;;;;;;5081702;28;20402;-65
2023/12/31 07:39:57;;;;;;;29.13;10.55;;;1.60;99.90;;;;;;5084636;28;20051;-68
2023/12/31 07:42:23;;;;;;;41.47;16.27;;;1.70;99.90;;;;;;5087021;28;20054;-65
2023/12/31 07:44:51;;;;;;;58.22;18.70;;;1.90;99.90;;;;;;5071337;28;20028;-65
2023/12/31 07:47:17;;;;;;;27.02;11.13;;;2.20;99.90;;;;;;5074862;28;20585;-72
2023/12/31 07:49:43;;;;;;;19.83;8.73;;;2.30;99.90;;;;;;5074971;28;20103;-64
2023/12/31 07:52:08;;;;;;;22.48;10.02;;;2.00;99.90;;;;;;5090165;28;20036;-68
2023/12/31 07:54:34;;;;;;;49.88;17.60;;;1.80;99.90;;;;;;5090221;28;20370;-65
2023/12/31 07:56:59;;;;;;;23.52;9.73;;;1.80;99.90;;;;;;5089209;28;20036;-68
2023/12/31 07:59:26;;;;;;;14.07;6.50;;;2.40;99.90;;;;;;5082834;28;20129;-65
2023/12/31 08:01:52;;;;;;;13.48;5.60;;;2.80;99.90;;;;;;5063181;28;20455;-66
2023/12/31 08:04:18;;;;;;;10.32;5.55;;;3.10;99.90;;;;;;5071734;28;20033;-71
2023/12/31 08:06:44;;;;;;;13.13;5.93;;;3.40;99.90;;;;;;5067167;28;20035;-67
2023/12/31 08:09:13;;;;;;;26.35;12.68;;;3.30;99.90;;;;;;5091065;28;20028;-68
2023/12/31 08:11:39;;;;;;;23.42;9.55;;;2.90;99.90;;;;;;5088457;28;20034;-64
2023/12/31 08:14:04;;;;;;;13.90;6.03;;;2.70;99.90;;;;;;5090278;28;20040;-65
2023/12/31 08:16:31;;;;;;;14.55;6.25;;;2.80;99.90;;;;;;5079831;28;20040;-65
2023/12/31 08:18:56;;;;;;;16.27;6.55;;;2.90;99.90;;;;;;5080941;28;20099;-64
2023/12/31 08:21:22;;;;;;;14.00;5.78;;;2.80;99.90;;;;;;5076811;28;20037;-71
2023/12/31 08:23:48;;;;;;;16.17;7.88;;;2.80;99.90;;;;;;5090097;28;20465;-66
2023/12/31 08:26:16;;;;;;;17.77;7.80;;;2.80;99.90;;;;;;5090877;28;20043;-66
2023/12/31 08:28:44;;;;;;;15.15;6.70;;;2.80;99.90;;;;;;5072931;28;20029;-64
2023/12/31 08:31:14;;;;;;;20.52;9.27;;;2.60;99.90;;;;;;5078905;28;20028;-65
2023/12/31 08:33:40;;;;;;;11.20;5.10;;;2.70;99.90;;;;;;5079515;28;20021;-65
2023/12/31 08:36:06;;;;;;;11.45;5.38;;;3.00;99.90;;;;;;5071422;28;20410;-66
2023/12/31 08:38:31;;;;;;;6.05;3.45;;;3.10;99.90;;;;;;5071855;28;20351;-64
2023/12/31 08:40:58;;;;;;;8.57;3.45;;;3.30;99.90;;;;;;5072983;28;20376;-67
2023/12/31 08:43:23;;;;;;;10.75;5.05;;;3.60;99.90;;;;;;5080765;28;20028;-71
2023/12/31 08:45:51;;;;;;;12.52;5.50;;;3.70;99.90;;;;;;5072620;28;20032;-64
2023/12/31 08:48:17;;;;;;;11.75;5.30;;;3.70;99.90;;;;;;5083786;28;20034;-65
2023/12/31 08:50:46;;;;;;;9.55;4.38;;;3.80;99.90;;;;;;5070287;28;20680;-67
2023/12/31 08:53:12;;;;;;;24.42;11.07;;;3.80;99.90;;;;;;5087127;28;20086;-66
2023/12/31 08:55:38;;;;;;;16.13;8.00;;;4.00;99.90;;;;;;5090001;28;20028;-67
2023/12/31 08:58:03;;;;;;;19.85;10.20;;;4.00;99.90;;;;;;5085994;28;20024;-67
2023/12/31 09:00:32;;;;;;;26.95;12.68;;;4.00;99.90;;;;;;5080454;28;20049;-66
2023/12/31 09:02:59;;;;;;;35.28;14.00;;;4.00;99.90;;;;;;5070868;28;20063;-66
2023/12/31 09:05:25;;;;;;;22.48;10.40;;;4.20;99.90;;;;;;5068988;28;20111;-72
2023/12/31 09:07:51;;;;;;;16.10;9.10;;;4.40;99.90;;;;;;5064368;28;20033;-65
2023/12/31 09:10:16;;;;;;;17.75;9.18;;;4.60;99.90;;;;;;5067906;28;20083;-65
2023/12/31 09:12:42;;;;;;;12.40;6.30;;;4.80;99.90;;;;;;5066213;28;20027;-66
2023/12/31 09:15:08;;;;;;;20.70;8.15;;;5.10;99.90;;;;;;5069660;28;20485;-68
2023/12/31 09:17:35;;;;;;;57.88;17.65;;;5.30;99.90;;;;;;5069284;28;20467;-68
2023/12/31 09:20:05;;;;;;;33.03;13.00;;;5.50;99.90;;;;;;5069917;28;20458;-69
2023/12/31 09:22:31;;;;;;;75.25;23.63;;;5.70;99.90;;;;;;5050783;28;20083;-67
2023/12/31 09:24:56;;;;;;;28.23;10.93;;;5.80;99.90;;;;;;5070364;28;20115;-67
2023/12/31 09:27:22;;;;;;;28.77;10.40;;;5.90;99.90;;;;;;5070512;28;20250;-73
2023/12/31 09:29:48;;;;;;;22.77;8.85;;;5.90;99.90;;;;;;5069544;28;20029;-68
2023/12/31 09:32:14;;;;;;;16.55;8.00;;;6.10;99.90;;;;;;5070507;28;20036;-68
2023/12/31 09:34:40;;;;;;;27.60;11.52;;;6.10;99.90;;;;;;5068638;28;20722;-68
2023/12/31 09:37:05;;;;;;;39.40;14.35;;;6.10;99.90;;;;;;5070354;28;20107;-69
2023/12/31 09:39:31;;;;;;;36.47;15.70;;;6.00;99.90;;;;;;5057470;28;20029;-67
2023/12/31 09:42:02;;;;;;;31.80;13.40;;;5.70;99.90;;;;;;5050232;28;20040;-67
2023/12/31 09:44:28;;;;;;;41.15;17.10;;;5.50;99.90;;;;;;5049489;28;20041;-73
2023/12/31 09:47:06;;;;;;;36.38;15.85;;;5.60;99.90;;;;;;5050269;28;20029;-68
2023/12/31 09:49:34;;;;;;;46.22;17.90;;;5.40;99.90;;;;;;5049353;28;20029;-66
2023/12/31 09:52:07;;;;;;;69.80;22.55;;;5.40;99.90;;;;;;5064861;28;20106;-68
2023/12/31 09:54:34;;;;;;;74.03;22.95;;;5.70;99.90;;;;;;5050511;28;20066;-68
2023/12/31 09:57:04;;;;;;;39.25;14.32;;;5.90;99.90;;;;;;5070268;28;20483;-70
2023/12/31 09:59:30;;;;;;;52.10;18.47;;;6.10;99.90;;;;;;5068425;28;20513;-67
2023/12/31 10:02:00;;;;;;;48.58;18.13;;;6.20;99.90;;;;;;5069010;28;20028;-67
2023/12/31 10:04:26;;;;;;;29.05;10.55;;;6.30;99.90;;;;;;5067906;28;20028;-72
2023/12/31 10:06:53;;;;;;;32.40;13.45;;;6.50;99.90;;;;;;5056667;28;20051;-68
2023/12/31 10:09:22;;;;;;;27.27;10.98;;;6.60;99.90;;;;;;5060626;28;20721;-67
2023/12/31 10:11:49;;;;;;;10.07;5.10;;;6.70;99.90;;;;;;5057081;28;21409;-69
2023/12/31 10:14:18;;;;;;;31.60;15.43;;;6.90;99.90;;;;;;5053156;28;20040;-69
2023/12/31 10:16:44;;;;;;;24.75;13.07;;;6.90;99.90;;;;;;5048824;28;20470;-70
2023/12/31 10:19:15;;;;;;;31.33;14.05;;;6.80;99.90;;;;;;5037840;28;20167;-69
2023/12/31 10:21:42;;;;;;;29.05;13.93;;;6.80;99.90;;;;;;5060414;28;20028;-67
2023/12/31 10:24:11;;;;;;;27.67;11.65;;;6.70;99.90;;;;;;5063352;28;20032;-69
2023/12/31 10:26:37;;;;;;;35.72;17.52;;;6.70;99.90;;;;;;5062554;28;20033;-69
2023/12/31 10:29:06;;;;;;;41.08;19.83;;;6.90;99.90;;;;;;5068262;28;20413;-69
2023/12/31 10:31:32;;;;;;;25.58;11.85;;;7.10;99.90;;;;;;5067240;28;20032;-68
2023/12/31 10:34:27;;;;;;;35.35;17.63;;;7.30;99.90;;;;;;5066639;28;20036;-69
2023/12/31 10:37:05;;;;;;;32.08;16.85;;;7.60;99.90;;;;;;5050600;28;20557;-69
2023/12/31 10:39:38;;;;;;;20.55;12.15;;;7.80;99.90;;;;;;5062861;28;20421;-73
2023/12/31 10:42:05;;;;;;;23.17;12.15;;;7.90;99.90;;;;;;5068185;28;20111;-69
2023/12/31 10:44:38;;;;;;;35.13;18.77;;;8.10;99.90;;;;;;5055403;28;20475;-73
2023/12/31 10:47:09;;;;;;;16.48;8.90;;;8.10;99.90;;;;;;5048033;28;20025;-70
2023/12/31 10:49:37;;;;;;;35.20;19.25;;;8.20;99.90;;;;;;5051164;28;20028;-69
2023/12/31 10:52:04;;;;;;;50.47;25.80;;;8.10;99.90;;;;;;5048447;28;20028;-69
2023/12/31 10:54:46;;;;;;;11.73;6.40;;;8.10;99.90;;;;;;5067907;28;20033;-73
2023/12/31 10:57:16;;;;;;;28.83;13.07;;;8.50;99.90;;;;;;5066253;28;20753;-68
2023/12/31 10:59:43;;;;;;;15.88;8.45;;;8.60;99.90;;;;;;5019718;28;1109708;-70
2023/12/31 11:02:16;;;;;;;18.40;7.45;;;8.60;99.90;;;;;;5068773;28;20483;-70
2023/12/31 11:04:49;;;;;;;28.02;10.23;;;8.90;99.90;;;;;;5068186;28;20086;-70
2023/12/31 11:07:17;;;;;;;14.30;6.10;;;9.20;99.90;;;;;;5082777;28;20024;-70
2023/12/31 11:09:43;;;;;;;12.75;5.65;;;9.50;99.90;;;;;;5082055;28;20028;-69
2023/12/31 11:12:10;;;;;;;26.83;9.40;;;9.50;99.90;;;;;;5084226;28;20036;-69
2023/12/31 11:14:39;;;;;;;22.58;9.15;;;9.60;99.90;;;;;;5062045;28;20025;-69
2023/12/31 11:17:26;;;;;;;5.60;3.33;;;9.60;99.90;;;;;;5076730;28;20024;-69
2023/12/31 11:20:10;;;;;;;10.50;5.18;;;9.60;99.90;;;;;;5081678;28;20028;-71
2023/12/31 11:23:05;;;;;;;4.90;3.00;;;9.90;99.90;;;;;;5070839;28;20066;-69
2023/12/31 11:25:31;;;;;;;7.43;3.40;;;10.00;99.90;;;;;;5087511;28;20062;-74
2023/12/31 11:27:57;;;;;;;4.60;2.30;;;10.30;99.90;;;;;;5069811;28;20067;-69
2023/12/31 11:30:48;;;;;;;3.70;1.75;;;10.30;99.90;;;;;;5069667;28;20509;-70
2023/12/31 11:33:30;;;;;;;;;;;10.80;99.90;;;;;;5080052;28;20035;-70
2023/12/31 11:36:01;;;;;;;4.68;2.33;;;10.90;99.90;;;;;;5050092;28;19921;-70
2023/12/31 11:38:27;;;;;;;3.17;1.88;;;10.90;99.90;;;;;;5081262;28;20039;-69
2023/12/31 11:40:56;;;;;;;3.88;1.80;;;10.90;99.90;;;;;;5087063;28;20209;-69
2023/12/31 11:43:23;;;;;;;4.93;2.13;;;11.00;99.90;;;;;;5070434;28;20032;-69
2023/12/31 11:45:49;;;;;;;2.38;1.45;;;11.10;99.90;;;;;;5070874;28;20036;-70
2023/12/31 11:48:22;;;;;;;5.25;2.22;;;11.00;99.90;;;;;;5062930;28;20448;-70
2023/12/31 11:50:53;;;;;;;3.28;1.70;;;11.00;99.90;;;;;;5077048;28;20589;-70
2023/12/31 11:53:22;;;;;;;;;;;11.10;99.90;;;;;;5082517;28;20043;-70
2023/12/31 11:55:58;;;;;;;4.40;1.65;;;11.00;99.90;;;;;;5080191;28;19920;-70
2023/12/31 11:58:31;;;;;;;3.15;1.83;;;10.90;99.90;;;;;;5083316;28;20024;-70
2023/12/31 12:00:56;;;;;;;4.68;1.65;;;11.00;99.90;;;;;;5055232;28;20135;-69
2023/12/31 12:03:22;;;;;;;6.03;2.35;;;11.00;99.90;;;;;;5070300;28;20152;-71
2023/12/31 12:05:52;;;;;;;4.55;2.20;;;11.00;99.90;;;;;;5095207;28;20115;-71
2023/12/31 12:08:19;;;;;;;5.43;2.08;;;11.00;99.90;;;;;;5092946;28;20039;-72
2023/12/31 12:10:45;;;;;;;4.18;2.28;;;11.00;99.90;;;;;;5090405;28;20072;-70
2023/12/31 12:13:11;;;;;;;6.13;2.20;;;10.90;99.90;;;;;;5053520;28;20032;-73
2023/12/31 12:15:37;;;;;;;3.40;1.98;;;10.90;99.90;;;;;;5089277;28;20109;-70
2023/12/31 12:18:21;;;;;;;7.50;2.08;;;10.90;99.90;;;;;;5088155;28;20039;-69
2023/12/31 12:20:47;;;;;;;4.30;2.00;;;10.80;99.90;;;;;;5087151;28;20033;-69
2023/12/31 12:23:21;;;;;;;4.43;2.10;;;10.80;99.90;;;;;;5098227;28;20110;-70
2023/12/31 12:25:47;;;;;;;4.72;1.80;;;10.80;99.90;;;;;;5088812;28;20714;-69
2023/12/31 12:28:16;;;;;;;5.88;2.10;;;10.90;99.90;;;;;;5097555;28;20818;-70
2023/12/31 12:30:42;;;;;;;5.85;2.40;;;10.90;99.90;;;;;;5082502;28;20036;-69
2023/12/31 12:33:09;;;;;;;4.07;2.22;;;10.90;99.90;;;;;;5086955;28;20086;-70
2023/12/31 12:35:44;;;;;;;4.57;2.22;;;10.80;99.90;;;;;;5070634;28;20044;-72
2023/12/31 12:38:11;;;;;;;7.75;2.30;;;10.80;99.90;;;;;;5089939;28;20070;-69
2023/12/31 12:40:37;;;;;;;4.75;2.45;;;10.90;99.90;;;;;;5084339;28;20200;-74
2023/12/31 12:43:04;;;;;;;5.32;1.90;;;10.80;99.90;;;;;;5081512;28;20119;-68
2023/12/31 12:45:30;;;;;;;3.13;1.65;;;10.30;99.90;;;;;;5083026;28;20062;-71